Time;durP1;ratioP1;P1;durP2;ratioP2;P2;SDS_P1;SDS_P2;PMS_P1;PMS_P2;Temp;Humidity;BMP_temperature;BMP_pressure;BME280_temperature;BME280_humidity;BME280_pressure;Samples;Min_cycle;Max_cycle;Signal;HPM_P1;HPM_P2
2023/04/16 00:01:11;;;;;;;26.85;20.77;;;;;;;;;;5092850;28;20031;-72
2023/04/16 00:03:37;;;;;;;27.55;21.15;;;;;;;;;;5093088;28;20103;-73
2023/04/16 00:06:03;;;;;;;26.40;20.90;;;;;;;;;;5092993;28;20060;-73
2023/04/16 00:08:29;;;;;;;21.70;18.90;;;;;;;;;;5091921;28;20016;-73
2023/04/16 00:10:55;;;;;;;24.90;18.77;;;;;;;;;;5092420;28;20032;-71
2023/04/16 00:13:21;;;;;;;27.02;21.00;;;;;;;;;;5092827;28;20036;-72
2023/04/16 00:15:47;;;;;;;22.92;19.20;;;;;;;;;;5074225;28;20024;-72
2023/04/16 00:18:13;;;;;;;31.75;22.27;;;;;;;;;;5091433;28;20118;-71
2023/04/16 00:20:39;;;;;;;26.38;21.63;;;;;;;;;;5092150;28;20039;-71
2023/04/16 00:23:05;;;;;;;23.60;19.05;;;;;;;;;;5092171;28;20018;-71
2023/04/16 00:25:31;;;;;;;23.77;19.35;;;;;;;;;;5092069;28;20390;-71
2023/04/16 00:27:57;;;;;;;21.42;18.67;;;;;;;;;;5091455;28;20382;-71
2023/04/16 00:30:23;;;;;;;26.20;19.92;;;;;;;;;;5091962;28;20023;-72
2023/04/16 00:32:49;;;;;;;26.42;19.70;;;;;;;;;;5091899;28;20028;-70
2023/04/16 00:35:15;;;;;;;23.10;19.17;;;;;;;;;;5091936;28;20470;-71
2023/04/16 00:37:41;;;;;;;26.10;20.88;;;;;;;;;;5091353;28;20024;-71
2023/04/16 00:40:08;;;;;;;25.50;19.30;;;;;;;;;;5091642;28;20501;-71
2023/04/16 00:42:35;;;;;;;24.85;18.67;;;;;;;;;;5091006;28;20016;-71
2023/04/16 00:45:01;;;;;;;23.27;18.58;;;;;;;;;;5091854;28;20023;-71
2023/04/16 00:47:28;;;;;;;26.98;19.25;;;;;;;;;;5091756;28;20034;-72
2023/04/16 00:49:54;;;;;;;21.88;18.27;;;;;;;;;;5091816;28;20428;-71
2023/04/16 00:52:20;;;;;;;22.50;18.70;;;;;;;;;;5091884;28;20024;-71
2023/04/16 00:54:46;;;;;;;24.67;19.85;;;;;;;;;;5091679;28;20024;-71
2023/04/16 00:57:13;;;;;;;26.70;20.67;;;;;;;;;;5091047;28;20106;-71
2023/04/16 00:59:40;;;;;;;26.15;19.83;;;;;;;;;;5073217;28;20442;-71
2023/04/16 01:02:06;;;;;;;27.25;22.42;;;;;;;;;;5091429;28;20069;-71
2023/04/16 01:04:33;;;;;;;26.52;20.25;;;;;;;;;;5091526;28;20432;-71
2023/04/16 01:06:59;;;;;;;27.90;21.00;;;;;;;;;;5090876;28;20027;-73
2023/04/16 01:09:25;;;;;;;28.13;21.00;;;;;;;;;;5091002;28;20047;-71
2023/04/16 01:11:51;;;;;;;27.58;22.15;;;;;;;;;;5091470;28;20102;-72
2023/04/16 01:14:17;;;;;;;26.25;21.23;;;;;;;;;;5091533;28;20036;-71
2023/04/16 01:16:43;;;;;;;26.33;20.98;;;;;;;;;;5072786;28;20028;-71
2023/04/16 01:19:09;;;;;;;26.45;21.27;;;;;;;;;;5090703;28;20035;-70
2023/04/16 01:21:35;;;;;;;26.45;20.50;;;;;;;;;;5091461;28;20048;-71
2023/04/16 01:24:04;;;;;;;29.98;22.63;;;;;;;;;;5091269;28;20440;-71
2023/04/16 01:26:31;;;;;;;29.17;22.45;;;;;;;;;;5090752;28;20017;-71
2023/04/16 01:28:57;;;;;;;31.00;22.35;;;;;;;;;;5090295;28;20028;-72
2023/04/16 01:31:23;;;;;;;34.22;23.33;;;;;;;;;;5090990;28;20477;-72
2023/04/16 01:33:49;;;;;;;27.65;22.23;;;;;;;;;;5091296;28;20028;-72
2023/04/16 01:36:15;;;;;;;27.33;22.77;;;;;;;;;;5091170;28;20020;-72
2023/04/16 01:38:41;;;;;;;27.75;22.13;;;;;;;;;;5090215;28;20099;-72
2023/04/16 01:41:07;;;;;;;29.77;22.05;;;;;;;;;;5090995;28;20385;-73
2023/04/16 01:43:33;;;;;;;31.30;22.85;;;;;;;;;;5071214;28;20030;-73
2023/04/16 01:46:10;;;;;;;26.33;21.15;;;;;;;;;;5090983;28;20024;-71
2023/04/16 01:48:36;;;;;;;32.85;23.38;;;;;;;;;;5090176;28;20535;-72
2023/04/16 01:51:03;;;;;;;31.27;23.65;;;;;;;;;;5090815;28;20028;-72
2023/04/16 01:53:29;;;;;;;30.52;21.73;;;;;;;;;;5090982;28;20106;-71
2023/04/16 01:55:55;;;;;;;30.08;23.17;;;;;;;;;;5091006;28;20020;-73
2023/04/16 01:58:21;;;;;;;33.30;25.30;;;;;;;;;;5090209;28;20039;-73
2023/04/16 02:00:47;;;;;;;37.10;25.67;;;;;;;;;;5072293;28;20048;-72
2023/04/16 02:03:16;;;;;;;35.70;24.75;;;;;;;;;;5090801;28;20016;-73
2023/04/16 02:05:42;;;;;;;36.13;25.80;;;;;;;;;;5090774;28;20028;-72
2023/04/16 02:08:08;;;;;;;36.70;26.80;;;;;;;;;;5090139;28;20077;-72
2023/04/16 02:10:34;;;;;;;34.20;25.85;;;;;;;;;;5090301;28;20398;-71
2023/04/16 02:13:00;;;;;;;35.63;25.42;;;;;;;;;;5090943;28;20032;-71
2023/04/16 02:15:26;;;;;;;32.35;23.75;;;;;;;;;;5090521;28;20028;-72
2023/04/16 02:17:55;;;;;;;35.58;24.85;;;;;;;;;;5071847;28;20039;-73
2023/04/16 02:20:21;;;;;;;34.90;24.92;;;;;;;;;;5090734;28;20501;-72
2023/04/16 02:22:47;;;;;;;34.55;25.40;;;;;;;;;;5090522;28;20031;-73
2023/04/16 02:25:13;;;;;;;35.63;25.58;;;;;;;;;;5090574;28;20016;-72
2023/04/16 02:27:39;;;;;;;34.90;25.10;;;;;;;;;;5089820;28;20051;-72
2023/04/16 02:30:06;;;;;;;36.25;26.42;;;;;;;;;;5090690;28;20377;-71
2023/04/16 02:32:32;;;;;;;38.78;27.48;;;;;;;;;;5090458;28;20557;-71
2023/04/16 02:34:58;;;;;;;37.90;26.25;;;;;;;;;;5090660;28;20028;-72
2023/04/16 02:37:24;;;;;;;40.78;27.90;;;;;;;;;;5089864;28;20077;-73
2023/04/16 02:39:52;;;;;;;41.30;26.85;;;;;;;;;;5093811;28;20032;-73
2023/04/16 02:42:18;;;;;;;40.17;27.20;;;;;;;;;;5093302;28;20055;-71
2023/04/16 02:44:44;;;;;;;41.20;28.63;;;;;;;;;;5094068;28;20056;-71
2023/04/16 02:47:10;;;;;;;37.13;27.15;;;;;;;;;;5093333;28;20020;-71
2023/04/16 02:49:36;;;;;;;38.08;26.95;;;;;;;;;;5093865;28;20028;-72
2023/04/16 02:52:02;;;;;;;36.33;25.85;;;;;;;;;;5094080;28;20036;-72
2023/04/16 02:54:28;;;;;;;36.17;24.85;;;;;;;;;;5093987;28;20049;-72
2023/04/16 02:56:54;;;;;;;35.15;26.67;;;;;;;;;;5094060;28;20028;-72
2023/04/16 02:59:20;;;;;;;37.17;26.48;;;;;;;;;;5092817;28;20482;-71
2023/04/16 03:01:46;;;;;;;34.40;26.20;;;;;;;;;;5093841;28;20024;-72
2023/04/16 03:04:12;;;;;;;34.78;24.33;;;;;;;;;;5093500;28;20023;-72
2023/04/16 03:06:38;;;;;;;36.30;26.38;;;;;;;;;;5093700;28;20048;-70
2023/04/16 03:09:04;;;;;;;41.30;26.65;;;;;;;;;;5092731;28;20063;-71
2023/04/16 03:11:30;;;;;;;37.80;26.88;;;;;;;;;;5093521;28;20039;-70
2023/04/16 03:13:56;;;;;;;37.95;27.10;;;;;;;;;;5093647;28;20050;-72
2023/04/16 03:16:22;;;;;;;31.45;24.42;;;;;;;;;;5093676;28;20409;-72
2023/04/16 03:18:48;;;;;;;38.38;26.45;;;;;;;;;;5093097;28;20032;-71
2023/04/16 03:21:14;;;;;;;37.47;25.98;;;;;;;;;;5094511;28;20020;-71
2023/04/16 03:23:40;;;;;;;35.50;24.02;;;;;;;;;;5094553;28;20389;-72
2023/04/16 03:26:06;;;;;;;34.88;24.80;;;;;;;;;;5094014;28;20017;-70
2023/04/16 03:28:32;;;;;;;43.80;28.48;;;;;;;;;;5093228;28;20032;-70
2023/04/16 03:30:58;;;;;;;37.35;26.70;;;;;;;;;;5075962;28;20035;-73
2023/04/16 03:33:25;;;;;;;41.35;27.55;;;;;;;;;;5094117;28;20020;-73
2023/04/16 03:35:57;;;;;;;35.65;25.55;;;;;;;;;;5093807;28;20015;-73
2023/04/16 03:38:25;;;;;;;34.33;25.33;;;;;;;;;;5092332;28;20074;-73
2023/04/16 03:40:51;;;;;;;36.88;26.05;;;;;;;;;;5092972;28;20032;-73
2023/04/16 03:43:17;;;;;;;43.25;26.60;;;;;;;;;;5092049;28;20052;-73
2023/04/16 03:45:44;;;;;;;37.20;26.08;;;;;;;;;;5093041;28;20085;-70
2023/04/16 03:48:10;;;;;;;36.83;24.85;;;;;;;;;;5073729;28;20560;-71
2023/04/16 03:50:36;;;;;;;40.38;25.55;;;;;;;;;;5074499;28;20024;-71
2023/04/16 03:53:02;;;;;;;35.15;25.58;;;;;;;;;;5093222;28;20066;-71
2023/04/16 03:55:28;;;;;;;39.33;26.25;;;;;;;;;;5094005;28;20024;-73
2023/04/16 03:57:54;;;;;;;39.28;26.17;;;;;;;;;;5093120;28;20020;-71
2023/04/16 04:00:20;;;;;;;42.08;27.98;;;;;;;;;;5092767;28;20052;-71
2023/04/16 04:02:46;;;;;;;48.75;30.20;;;;;;;;;;5092542;28;20020;-71
2023/04/16 04:05:12;;;;;;;45.22;30.13;;;;;;;;;;5092587;28;20374;-71
2023/04/16 04:07:38;;;;;;;45.47;28.23;;;;;;;;;;5091715;28;20020;-70
2023/04/16 04:10:05;;;;;;;42.60;28.85;;;;;;;;;;5092401;28;20024;-71
2023/04/16 04:12:31;;;;;;;44.03;29.23;;;;;;;;;;5092583;28;20099;-71
2023/04/16 04:14:57;;;;;;;43.72;29.45;;;;;;;;;;5092303;28;20031;-72
2023/04/16 04:17:23;;;;;;;42.05;28.27;;;;;;;;;;5091796;28;20094;-71
2023/04/16 04:19:51;;;;;;;43.05;28.27;;;;;;;;;;5092136;28;20040;-72
2023/04/16 04:22:17;;;;;;;47.10;29.52;;;;;;;;;;5092545;28;20028;-73
2023/04/16 04:24:43;;;;;;;43.15;28.52;;;;;;;;;;5092500;28;20016;-71
2023/04/16 04:27:09;;;;;;;43.38;29.02;;;;;;;;;;5091320;28;20031;-68
2023/04/16 04:29:35;;;;;;;42.00;28.42;;;;;;;;;;5073913;28;20020;-71
2023/04/16 04:32:00;;;;;;;42.63;27.75;;;;;;;;;;5091981;28;20024;-71
2023/04/16 04:34:26;;;;;;;40.88;27.33;;;;;;;;;;5091976;28;20115;-71
2023/04/16 04:36:52;;;;;;;39.15;27.88;;;;;;;;;;5091842;28;20031;-71
2023/04/16 04:39:20;;;;;;;40.83;27.95;;;;;;;;;;5091079;28;20114;-70
2023/04/16 04:41:46;;;;;;;42.13;28.92;;;;;;;;;;5090170;28;20086;-72
2023/04/16 04:44:12;;;;;;;42.80;29.60;;;;;;;;;;5091952;28;20032;-72
2023/04/16 04:46:39;;;;;;;39.50;29.17;;;;;;;;;;5091789;28;20077;-72
2023/04/16 04:49:05;;;;;;;37.78;27.73;;;;;;;;;;5090869;28;20024;-72
2023/04/16 04:51:31;;;;;;;37.17;27.58;;;;;;;;;;5091855;28;20405;-72
2023/04/16 04:53:57;;;;;;;33.60;25.85;;;;;;;;;;5091386;28;20038;-73
2023/04/16 04:56:23;;;;;;;34.05;25.98;;;;;;;;;;5091807;28;20084;-72
2023/04/16 04:58:50;;;;;;;31.08;23.67;;;;;;;;;;5090776;28;20028;-72
2023/04/16 05:01:16;;;;;;;27.42;21.55;;;;;;;;;;5091101;28;20031;-73
2023/04/16 05:03:42;;;;;;;21.33;16.42;;;;;;;;;;5091702;28;20294;-72
2023/04/16 05:06:08;;;;;;;18.60;14.90;;;;;;;;;;5086344;28;20024;-73
2023/04/16 05:08:34;;;;;;;16.95;14.27;;;;;;;;;;5087374;28;20024;-72
2023/04/16 05:11:00;;;;;;;15.77;13.52;;;;;;;;;;5090943;28;20116;-72
2023/04/16 05:13:26;;;;;;;14.70;13.20;;;;;;;;;;5090328;28;20109;-72
2023/04/16 05:15:52;;;;;;;15.00;13.38;;;;;;;;;;5091645;28;20055;-72
2023/04/16 05:18:18;;;;;;;15.70;12.75;;;;;;;;;;5066923;28;20055;-72
2023/04/16 05:20:45;;;;;;;13.93;11.93;;;;;;;;;;5084824;28;20044;-73
2023/04/16 05:23:11;;;;;;;14.90;12.45;;;;;;;;;;5071878;28;20016;-72
2023/04/16 05:25:37;;;;;;;15.07;12.52;;;;;;;;;;5090306;28;20058;-70
2023/04/16 05:28:03;;;;;;;14.00;11.77;;;;;;;;;;5090183;28;20048;-72
2023/04/16 05:30:29;;;;;;;14.35;12.85;;;;;;;;;;5089883;28;20047;-72
2023/04/16 05:32:55;;;;;;;15.35;13.57;;;;;;;;;;5090739;28;20398;-73
2023/04/16 05:35:21;;;;;;;19.40;15.40;;;;;;;;;;5084456;28;20021;-71
2023/04/16 05:37:47;;;;;;;16.88;13.85;;;;;;;;;;5078918;28;20031;-70
2023/04/16 05:40:13;;;;;;;15.63;13.65;;;;;;;;;;5069160;28;20040;-71
2023/04/16 05:42:39;;;;;;;19.55;14.93;;;;;;;;;;5069318;28;20120;-74
2023/04/16 05:45:06;;;;;;;21.33;15.75;;;;;;;;;;5076676;28;20106;-75
2023/04/16 05:47:32;;;;;;;19.95;14.75;;;;;;;;;;5089311;28;20020;-72
2023/04/16 05:49:58;;;;;;;17.17;14.43;;;;;;;;;;5089547;28;20402;-72
2023/04/16 05:52:24;;;;;;;14.35;12.85;;;;;;;;;;5089861;28;20031;-72
2023/04/16 05:54:50;;;;;;;15.35;12.25;;;;;;;;;;5091977;28;20035;-72
2023/04/16 05:57:16;;;;;;;14.88;13.05;;;;;;;;;;5091092;28;20020;-71
2023/04/16 05:59:42;;;;;;;14.32;12.80;;;;;;;;;;5091142;28;20401;-73
2023/04/16 06:02:08;;;;;;;14.30;12.45;;;;;;;;;;5073092;28;20046;-72
2023/04/16 06:04:34;;;;;;;14.13;12.07;;;;;;;;;;5091569;28;20077;-73
2023/04/16 06:07:00;;;;;;;17.20;12.70;;;;;;;;;;5091039;28;20051;-73
2023/04/16 06:09:27;;;;;;;17.35;13.10;;;;;;;;;;5090971;28;20028;-72
2023/04/16 06:11:53;;;;;;;14.57;11.85;;;;;;;;;;5073544;28;20031;-71
2023/04/16 06:14:19;;;;;;;14.30;11.52;;;;;;;;;;5094960;28;20031;-71
2023/04/16 06:16:45;;;;;;;16.05;12.35;;;;;;;;;;5076559;28;20063;-72
2023/04/16 06:19:11;;;;;;;12.65;11.15;;;;;;;;;;5094660;28;20031;-72
2023/04/16 06:21:37;;;;;;;12.07;10.00;;;;;;;;;;5095011;28;20028;-72
2023/04/16 06:24:03;;;;;;;12.82;10.40;;;;;;;;;;5094714;28;20027;-73
2023/04/16 06:26:29;;;;;;;11.40;9.15;;;;;;;;;;5094761;28;20024;-73
2023/04/16 06:28:55;;;;;;;11.43;10.32;;;;;;;;;;5094292;28;20039;-73
2023/04/16 06:31:22;;;;;;;11.75;9.90;;;;;;;;;;5095036;28;20401;-72
2023/04/16 06:33:48;;;;;;;11.82;9.40;;;;;;;;;;5094678;28;20024;-71
2023/04/16 06:36:15;;;;;;;10.45;8.88;;;;;;;;;;5094593;28;20035;-72
2023/04/16 06:38:41;;;;;;;10.57;9.48;;;;;;;;;;5088479;28;20053;-71
2023/04/16 06:41:07;;;;;;;11.70;9.25;;;;;;;;;;5094541;28;20044;-72
2023/04/16 06:43:33;;;;;;;9.10;8.20;;;;;;;;;;5094356;28;20024;-73
2023/04/16 06:46:00;;;;;;;11.27;9.90;;;;;;;;;;5094413;28;20036;-72
2023/04/16 06:48:26;;;;;;;9.60;8.60;;;;;;;;;;5094022;28;20024;-71
2023/04/16 06:50:52;;;;;;;10.25;8.52;;;;;;;;;;5094462;28;20024;-72
2023/04/16 06:53:18;;;;;;;11.13;8.95;;;;;;;;;;5076158;28;20028;-73
2023/04/16 06:55:44;;;;;;;9.60;8.52;;;;;;;;;;5094245;28;20077;-73
2023/04/16 06:58:10;;;;;;;10.90;9.68;;;;;;;;;;5093970;28;20389;-72
2023/04/16 07:00:36;;;;;;;11.27;9.52;;;;;;;;;;5094142;28;20052;-71
2023/04/16 07:03:02;;;;;;;12.60;9.77;;;;;;;;;;5094304;28;20048;-73
2023/04/16 07:05:28;;;;;;;10.30;9.20;;;;;;;;;;5094195;28;20394;-73
2023/04/16 07:07:56;;;;;;;10.18;9.15;;;;;;;;;;5093709;28;20020;-73
2023/04/16 07:10:22;;;;;;;10.10;9.07;;;;;;;;;;5093865;28;20020;-72
2023/04/16 07:12:48;;;;;;;13.52;9.43;;;;;;;;;;5093903;28;20390;-73
2023/04/16 07:15:14;;;;;;;12.73;10.35;;;;;;;;;;5092892;28;20024;-73
2023/04/16 07:17:40;;;;;;;12.00;10.70;;;;;;;;;;5087528;28;20028;-72
2023/04/16 07:20:07;;;;;;;12.02;10.48;;;;;;;;;;5093711;28;20379;-73
2023/04/16 07:22:33;;;;;;;12.48;11.23;;;;;;;;;;5093642;28;20016;-73
2023/04/16 07:24:59;;;;;;;13.50;12.07;;;;;;;;;;5093044;28;20185;-73
2023/04/16 07:27:25;;;;;;;13.48;12.05;;;;;;;;;;5093323;28;20050;-73
2023/04/16 07:29:51;;;;;;;12.82;11.38;;;;;;;;;;5093717;28;20429;-72
2023/04/16 07:32:17;;;;;;;14.30;11.85;;;;;;;;;;5093574;28;20404;-72
2023/04/16 07:34:43;;;;;;;13.98;11.23;;;;;;;;;;5093696;28;20028;-73
2023/04/16 07:37:09;;;;;;;14.07;11.93;;;;;;;;;;5093604;28;20035;-73
2023/04/16 07:39:35;;;;;;;12.93;11.52;;;;;;;;;;5093419;28;20492;-73
2023/04/16 07:42:01;;;;;;;13.05;10.98;;;;;;;;;;5093526;28;20024;-73
2023/04/16 07:44:27;;;;;;;14.68;11.43;;;;;;;;;;5093033;28;20338;-74
2023/04/16 07:46:53;;;;;;;13.77;10.90;;;;;;;;;;5092885;28;20032;-73
2023/04/16 07:49:19;;;;;;;11.45;9.95;;;;;;;;;;5092963;28;20524;-72
2023/04/16 07:51:45;;;;;;;10.98;9.77;;;;;;;;;;5093090;28;20056;-72
2023/04/16 07:54:11;;;;;;;13.70;9.52;;;;;;;;;;5092992;28;20020;-72
2023/04/16 07:56:37;;;;;;;10.68;9.50;;;;;;;;;;5093108;28;20024;-72
2023/04/16 07:59:03;;;;;;;13.20;9.82;;;;;;;;;;5092908;28;20027;-72
2023/04/16 08:01:30;;;;;;;11.23;9.60;;;;;;;;;;5092705;28;20024;-72
2023/04/16 08:03:56;;;;;;;12.27;9.23;;;;;;;;;;5092930;28;20443;-72
2023/04/16 08:06:22;;;;;;;12.40;10.98;;;;;;;;;;5092694;28;20113;-72
2023/04/16 08:08:48;;;;;;;14.00;10.00;;;;;;;;;;5092314;28;20027;-72
2023/04/16 08:11:14;;;;;;;11.07;9.43;;;;;;;;;;5092842;28;20024;-72
2023/04/16 08:13:40;;;;;;;12.27;9.52;;;;;;;;;;5092487;28;20013;-72
2023/04/16 08:16:06;;;;;;;12.07;10.38;;;;;;;;;;5092447;28;20020;-73
2023/04/16 08:18:32;;;;;;;13.75;12.30;;;;;;;;;;5092571;28;20028;-71
2023/04/16 08:20:58;;;;;;;16.48;14.77;;;;;;;;;;5092521;28;20051;-72
2023/04/16 08:23:24;;;;;;;16.45;14.27;;;;;;;;;;5074742;28;20390;-72
2023/04/16 08:25:50;;;;;;;12.85;11.55;;;;;;;;;;5093140;28;20190;-71
2023/04/16 08:28:16;;;;;;;12.98;11.68;;;;;;;;;;5092379;28;20013;-72
2023/04/16 08:30:43;;;;;;;15.95;12.82;;;;;;;;;;5092369;28;20035;-72
2023/04/16 08:33:09;;;;;;;13.27;11.98;;;;;;;;;;5074152;28;20028;-71
2023/04/16 08:35:35;;;;;;;13.60;12.20;;;;;;;;;;5091701;28;20028;-71
2023/04/16 08:38:03;;;;;;;13.77;12.00;;;;;;;;;;5092049;28;20055;-71
2023/04/16 08:40:30;;;;;;;12.77;10.88;;;;;;;;;;5092357;28;20024;-71
2023/04/16 08:42:58;;;;;;;15.63;12.82;;;;;;;;;;5074796;28;20081;-72
2023/04/16 08:45:25;;;;;;;14.02;12.10;;;;;;;;;;5092806;28;20016;-72
2023/04/16 08:47:52;;;;;;;13.75;12.40;;;;;;;;;;5091970;28;20111;-71
2023/04/16 08:50:25;;;;;;;13.18;11.77;;;;;;;;;;5084801;28;20032;-71
2023/04/16 08:53:05;;;;;;;13.35;11.90;;;;;;;;;;5070293;28;20028;-71
2023/04/16 08:55:38;;;;;;;14.52;12.98;;;;;;;;;;5069996;28;20474;-71
2023/04/16 08:58:24;;;;;;;16.58;12.95;;;;;;;;;;5052322;28;20047;-69
2023/04/16 09:00:51;;;;;;;12.52;11.25;;;;;;;;;;5069708;28;20032;-71
2023/04/16 09:03:20;;;;;;;10.27;9.23;;;;;;;;;;5071479;28;20471;-71
2023/04/16 09:05:46;;;;;;;11.43;10.23;;;;;;;;;;5071715;28;20023;-71
2023/04/16 09:08:12;;;;;;;12.38;10.70;;;;;;;;;;5071463;28;20051;-72
2023/04/16 09:10:38;;;;;;;12.52;11.27;;;;;;;;;;5071511;28;20024;-71
2023/04/16 09:13:05;;;;;;;10.32;8.60;;;;;;;;;;5071836;28;20025;-69
2023/04/16 09:15:31;;;;;;;10.68;8.48;;;;;;;;;;5071482;28;20082;-69
2023/04/16 09:17:57;;;;;;;10.85;9.13;;;;;;;;;;5071288;28;20029;-72
2023/04/16 09:20:23;;;;;;;14.65;11.70;;;;;;;;;;5071384;28;20017;-72
2023/04/16 09:22:49;;;;;;;12.75;9.85;;;;;;;;;;5071426;28;20024;-71
2023/04/16 09:25:16;;;;;;;12.65;10.73;;;;;;;;;;5071404;28;20024;-72
2023/04/16 09:27:42;;;;;;;12.95;11.50;;;;;;;;;;5052983;28;20024;-72
2023/04/16 09:30:27;;;;;;;11.05;9.85;;;;;;;;;;5070999;28;20111;-71
2023/04/16 09:33:11;;;;;;;14.02;12.45;;;;;;;;;;5071239;28;20106;-71
2023/04/16 09:35:47;;;;;;;14.27;12.18;;;;;;;;;;5071351;28;20047;-68
2023/04/16 09:38:13;;;;;;;13.30;12.00;;;;;;;;;;5070902;28;20532;-71
2023/04/16 09:40:39;;;;;;;14.50;13.02;;;;;;;;;;5071038;28;20028;-71
2023/04/16 09:43:11;;;;;;;16.40;13.13;;;;;;;;;;5070138;28;20031;-71
2023/04/16 09:45:50;;;;;;;17.45;12.65;;;;;;;;;;5069205;28;20052;-69
2023/04/16 09:48:27;;;;;;;17.98;11.85;;;;;;;;;;5053828;28;20032;-71
2023/04/16 09:50:53;;;;;;;19.48;13.85;;;;;;;;;;5073315;28;20025;-70
2023/04/16 09:53:29;;;;;;;13.35;11.10;;;;;;;;;;5073497;28;20074;-71
2023/04/16 09:56:00;;;;;;;10.18;8.02;;;;;;;;;;5073570;28;20036;-71
2023/04/16 09:58:26;;;;;;;12.50;9.40;;;;;;;;;;5074229;28;20040;-71
2023/04/16 10:00:56;;;;;;;10.65;9.02;;;;;;;;;;5075140;28;20163;-72
2023/04/16 10:03:29;;;;;;;11.10;8.93;;;;;;;;;;5075062;28;20021;-71
2023/04/16 10:05:55;;;;;;;11.20;7.38;;;;;;;;;;5075719;28;20116;-72
2023/04/16 10:08:23;;;;;;;9.98;8.13;;;;;;;;;;5075363;28;20024;-72
2023/04/16 10:10:49;;;;;;;7.80;6.07;;;;;;;;;;5075431;28;20024;-72
2023/04/16 10:13:17;;;;;;;7.63;6.45;;;;;;;;;;5057275;28;20033;-70
2023/04/16 10:15:44;;;;;;;7.63;6.63;;;;;;;;;;5074882;28;20037;-71
2023/04/16 10:18:10;;;;;;;7.45;6.68;;;;;;;;;;5074873;28;20567;-69
2023/04/16 10:20:36;;;;;;;7.18;6.03;;;;;;;;;;5075531;28;20056;-71
2023/04/16 10:23:02;;;;;;;6.10;5.13;;;;;;;;;;5075736;28;20016;-73
2023/04/16 10:25:29;;;;;;;6.18;5.18;;;;;;;;;;5076130;28;20471;-72
2023/04/16 10:27:56;;;;;;;5.43;4.80;;;;;;;;;;5075413;28;20017;-73
2023/04/16 10:30:22;;;;;;;6.13;5.53;;;;;;;;;;5075511;28;20028;-70
2023/04/16 10:32:49;;;;;;;6.07;5.45;;;;;;;;;;5075142;28;20148;-70
2023/04/16 10:35:18;;;;;;;5.53;4.97;;;;;;;;;;5074446;28;20025;-71
2023/04/16 10:37:45;;;;;;;12.43;5.65;;;;;;;;;;5074186;28;20082;-69
2023/04/16 10:40:21;;;;;;;9.25;6.70;;;;;;;;;;5074188;28;20116;-71
2023/04/16 10:42:55;;;;;;;8.55;6.72;;;;;;;;;;5074190;28;20025;-71
2023/04/16 10:45:25;;;;;;;6.65;5.97;;;;;;;;;;5074071;28;20024;-70
2023/04/16 10:47:55;;;;;;;5.57;5.07;;;;;;;;;;5074184;28;20020;-71
2023/04/16 10:50:21;;;;;;;5.07;4.57;;;;;;;;;;5074172;28;20032;-71
2023/04/16 10:52:47;;;;;;;7.57;4.90;;;;;;;;;;5074103;28;20027;-71
2023/04/16 10:55:17;;;;;;;5.32;4.82;;;;;;;;;;5074073;28;20045;-72
2023/04/16 10:57:43;;;;;;;6.53;4.38;;;;;;;;;;5056152;28;20432;-71
2023/04/16 11:00:22;;;;;;;6.45;5.45;;;;;;;;;;5072620;28;20020;-72
2023/04/16 11:02:52;;;;;;;8.15;6.05;;;;;;;;;;5073902;28;20479;-70
2023/04/16 11:05:21;;;;;;;6.30;5.17;;;;;;;;;;5073829;28;20029;-72
2023/04/16 11:07:48;;;;;;;8.73;5.47;;;;;;;;;;5078343;28;20287;-71
2023/04/16 11:10:14;;;;;;;7.95;6.38;;;;;;;;;;5091825;28;20056;-71
2023/04/16 11:12:40;;;;;;;5.20;4.75;;;;;;;;;;5093523;28;20035;-71
2023/04/16 11:15:06;;;;;;;6.50;5.47;;;;;;;;;;5093279;28;20024;-71
2023/04/16 11:17:36;;;;;;;5.95;5.00;;;;;;;;;;5090929;28;20114;-70
2023/04/16 11:20:02;;;;;;;6.70;6.00;;;;;;;;;;5093384;28;20043;-71
2023/04/16 11:22:28;;;;;;;6.50;5.40;;;;;;;;;;5093771;28;20110;-69
2023/04/16 11:24:55;;;;;;;6.93;5.22;;;;;;;;;;5093867;28;20494;-72
2023/04/16 11:27:22;;;;;;;5.30;4.80;;;;;;;;;;5093417;28;20402;-71
2023/04/16 11:29:56;;;;;;;4.85;4.38;;;;;;;;;;5093425;28;20466;-71
2023/04/16 11:32:22;;;;;;;4.30;3.67;;;;;;;;;;5093747;28;20097;-71
2023/04/16 11:34:48;;;;;;;5.68;4.78;;;;;;;;;;5093465;28;20473;-71
2023/04/16 11:37:15;;;;;;;7.72;5.63;;;;;;;;;;5093273;28;20024;-72
2023/04/16 11:39:51;;;;;;;4.50;4.10;;;;;;;;;;5075162;28;20024;-70
2023/04/16 11:42:21;;;;;;;3.50;3.13;;;;;;;;;;5093464;28;20032;-69
2023/04/16 11:44:51;;;;;;;4.07;3.20;;;;;;;;;;5087032;28;20510;-71
2023/04/16 11:47:17;;;;;;;3.58;2.78;;;;;;;;;;5092822;28;20038;-72
2023/04/16 11:49:43;;;;;;;3.92;3.42;;;;;;;;;;5093852;28;20024;-71
2023/04/16 11:52:09;;;;;;;3.70;3.22;;;;;;;;;;5093292;28;20436;-71
2023/04/16 11:54:36;;;;;;;4.05;3.65;;;;;;;;;;5094299;28;20028;-71
2023/04/16 11:57:05;;;;;;;4.10;3.30;;;;;;;;;;5093811;28;20101;-72
2023/04/16 11:59:32;;;;;;;4.45;4.05;;;;;;;;;;5093268;28;20032;-72
2023/04/16 12:01:58;;;;;;;4.15;3.17;;;;;;;;;;5093019;28;20016;-71
2023/04/16 12:04:25;;;;;;;3.25;2.95;;;;;;;;;;5092958;28;20025;-72
2023/04/16 12:07:09;;;;;;;3.63;3.33;;;;;;;;;;5093047;28;20028;-71
2023/04/16 12:09:36;;;;;;;4.05;3.42;;;;;;;;;;5092606;28;20020;-72
2023/04/16 12:12:03;;;;;;;4.47;3.72;;;;;;;;;;5092909;28;20028;-72
2023/04/16 12:14:29;;;;;;;4.25;3.35;;;;;;;;;;5089991;28;20051;-70
2023/04/16 12:16:56;;;;;;;4.65;3.88;;;;;;;;;;5090847;28;20027;-74
2023/04/16 12:19:22;;;;;;;5.03;3.70;;;;;;;;;;5091348;28;20025;-70
2023/04/16 12:21:49;;;;;;;3.63;3.30;;;;;;;;;;5074464;28;20020;-69
2023/04/16 12:24:19;;;;;;;4.18;3.50;;;;;;;;;;5091649;28;20050;-73
2023/04/16 12:26:54;;;;;;;3.38;3.08;;;;;;;;;;5092569;28;20016;-73
2023/04/16 12:29:22;;;;;;;3.88;3.47;;;;;;;;;;5092379;28;20024;-73
2023/04/16 12:31:48;;;;;;;4.15;3.47;;;;;;;;;;5074415;28;20111;-72
2023/04/16 12:34:15;;;;;;;3.88;3.45;;;;;;;;;;5092509;28;20063;-73
2023/04/16 12:36:42;;;;;;;4.30;3.88;;;;;;;;;;5074381;28;20482;-74
2023/04/16 12:39:09;;;;;;;2.92;2.35;;;;;;;;;;5092098;28;20431;-73
2023/04/16 12:41:39;;;;;;;2.58;1.77;;;;;;;;;;5092977;28;20490;-74
2023/04/16 12:44:08;;;;;;;5.05;2.58;;;;;;;;;;5092644;28;20502;-75
2023/04/16 12:46:35;;;;;;;2.50;2.30;;;;;;;;;;5092297;28;20028;-73
2023/04/16 12:49:01;;;;;;;2.50;2.30;;;;;;;;;;5091872;28;20024;-75
2023/04/16 12:51:27;;;;;;;3.85;3.45;;;;;;;;;;5092264;28;20494;-73
2023/04/16 12:53:55;;;;;;;3.53;3.20;;;;;;;;;;5073965;28;20459;-73
2023/04/16 12:56:21;;;;;;;3.90;3.50;;;;;;;;;;5091929;28;20477;-73
2023/04/16 12:58:50;;;;;;;4.30;3.90;;;;;;;;;;5091397;28;20031;-74
2023/04/16 13:01:16;;;;;;;5.00;3.92;;;;;;;;;;5091704;28;20419;-74
2023/04/16 13:03:42;;;;;;;3.45;3.10;;;;;;;;;;5091596;28;20016;-70
2023/04/16 13:06:08;;;;;;;3.33;2.58;;;;;;;;;;5091874;28;20050;-73
2023/04/16 13:08:34;;;;;;;3.13;2.83;;;;;;;;;;5091612;28;20491;-74
2023/04/16 13:11:00;;;;;;;3.58;3.17;;;;;;;;;;5092066;28;20024;-72
2023/04/16 13:13:27;;;;;;;5.60;3.20;;;;;;;;;;5091744;28;20023;-74
2023/04/16 13:15:53;;;;;;;3.40;3.10;;;;;;;;;;5091574;28;20104;-74
2023/04/16 13:18:18;;;;;;;3.50;3.20;;;;;;;;;;5091256;28;20090;-74
2023/04/16 13:20:44;;;;;;;3.15;2.92;;;;;;;;;;5091661;28;20020;-74
2023/04/16 13:23:11;;;;;;;3.85;3.33;;;;;;;;;;5091175;28;20035;-74
2023/04/16 13:25:37;;;;;;;4.25;3.78;;;;;;;;;;5073432;28;20020;-74
2023/04/16 13:28:03;;;;;;;4.32;3.92;;;;;;;;;;5091435;28;20062;-73
2023/04/16 13:30:29;;;;;;;3.65;3.33;;;;;;;;;;5091339;28;20418;-74
2023/04/16 13:32:55;;;;;;;5.20;3.55;;;;;;;;;;5091588;28;20136;-74
2023/04/16 13:35:22;;;;;;;3.70;3.38;;;;;;;;;;5091616;28;20024;-71
2023/04/16 13:37:48;;;;;;;3.80;3.38;;;;;;;;;;5091165;28;20162;-74
2023/04/16 13:40:14;;;;;;;3.72;3.38;;;;;;;;;;5091330;28;20111;-74
2023/04/16 13:42:41;;;;;;;3.42;3.13;;;;;;;;;;5091462;28;20024;-74
2023/04/16 13:45:08;;;;;;;5.03;4.05;;;;;;;;;;5091524;28;20016;-74
2023/04/16 13:47:34;;;;;;;3.75;3.30;;;;;;;;;;5091954;28;20020;-74
2023/04/16 13:50:00;;;;;;;4.93;3.97;;;;;;;;;;5091773;28;20442;-74
2023/04/16 13:52:26;;;;;;;4.10;3.65;;;;;;;;;;5091440;28;20032;-74
2023/04/16 13:54:52;;;;;;;4.82;4.25;;;;;;;;;;5091252;28;20028;-74
2023/04/16 13:57:18;;;;;;;5.22;4.72;;;;;;;;;;5091043;28;20031;-73
2023/04/16 13:59:45;;;;;;;6.22;4.93;;;;;;;;;;5090918;28;20533;-75
2023/04/16 14:02:11;;;;;;;6.68;4.88;;;;;;;;;;5091153;28;20032;-72
2023/04/16 14:04:37;;;;;;;6.30;5.00;;;;;;;;;;5091315;28;20705;-74
2023/04/16 14:07:03;;;;;;;6.90;5.28;;;;;;;;;;5091232;28;20021;-75
2023/04/16 14:09:29;;;;;;;5.93;5.28;;;;;;;;;;5090955;28;20016;-74
2023/04/16 14:11:55;;;;;;;5.43;4.72;;;;;;;;;;5072815;28;20035;-75
2023/04/16 14:14:25;;;;;;;6.57;5.13;;;;;;;;;;5090929;28;20032;-75
2023/04/16 14:16:51;;;;;;;5.93;5.00;;;;;;;;;;5072756;28;20114;-72
2023/04/16 14:19:17;;;;;;;6.30;4.90;;;;;;;;;;5090799;28;20371;-74
2023/04/16 14:21:43;;;;;;;6.32;4.68;;;;;;;;;;5091187;28;20027;-73
2023/04/16 14:24:09;;;;;;;5.72;5.03;;;;;;;;;;5091051;28;20024;-73